Terminal Aerodrome Forecast
Issued by NWS

Home | Current Version | Previous Version | Graphics & Text | Print | Product List | Glossary On
Versions: 1 2 3 4 5 6 7 8 9 10 11 12 13 14 15 16
000
FTUS43 KICT 272320
TAFRSL
TAF
KRSL 272320Z 2800/2824 17018G25KT P6SM SKC
     FM280200 17014G20KT P6SM FEW100 SCT250
     FM281500 21015G22KT P6SM FEW100 SCT250
     FM282000 34014G20KT P6SM SCT070=

USA.gov is the U.S. government's official web portal to all federal, state and local government web resources and services.